Hamme, Belgium
Current Conditions -  °F | °C
As of 11:20 AM on Saturday 25 Oct 2014 (Local Time) from EBAW Reporting Station
Drizzle Drizzle  
Wind Chill: 55°   Ceiling: 400
Heat Index: 55°   Visibility: 1.4mi
Dew Point: 52°   Wind: 7mph
Humidity: 88%   Direction: 220°SW
Pressure: 30.09"   Gusts: NA
Location:  51.1°N, 4.14°E
Report Text: EBAW 250920Z 22006KT 2300 -DZ BR BKN004 13/11 Q1019 BECMG 4000 BR
Loading
Personal Weather Stations






























Interactive Weather Map
Tropical Storm Tracking
New forecast layout! Learn more

10-Day Weather Forecast

Advertisements
Track Severe Weather on mobile